This is the latest recevied weather packets stored in our database for station/object DH4SBM. If no packets are shown the sender has not sent any weather packets the latest 10 day(s).
| Time | Temp. | Humidity | Pressure | Rain* | Wind** | Luminosity | Snow |
|---|---|---|---|---|---|---|---|
| 1777913745 | 19.44° C | 52% | 1013.2 hPa | 0 mm | - | 33 W/m² | - |
| 1777913145 | 20° C | 51% | 1013.1 hPa | 0 mm | - | 35 W/m² | - |
| 1777912545 | 20° C | 51% | 1013.2 hPa | 0 mm | - | 35 W/m² | - |
| 1777911945 | 20.56° C | 51% | 1013.4 hPa | 0 mm | - | 42 W/m² | - |
| 1777911345 | 20.56° C | 51% | 1013.3 hPa | 0 mm | - | 62 W/m² | - |
| 1777910745 | 20.56° C | 50% | 1013.3 hPa | 0 mm | - | 62 W/m² | - |
| 1777910145 | 21.11° C | 48% | 1013.3 hPa | 0 mm | - | 62 W/m² | - |
| 1777909545 | 21.67° C | 45% | 1013.2 hPa | 0 mm | - | 83 W/m² | - |
| 1777908945 | 22.22° C | 45% | 1013.3 hPa | 0 mm | - | 155 W/m² | - |
| 1777908345 | 21.67° C | 47% | 1013.3 hPa | 0 mm | - | 290 W/m² | - |
| 1777907745 | 22.22° C | 45% | 1013.2 hPa | 0 mm | - | 209 W/m² | - |
| 1777907145 | 22.22° C | 43% | 1013.2 hPa | 0 mm | - | 155 W/m² | - |
| 1777906545 | 22.22° C | 44% | 1013.4 hPa | 0 mm | - | 360 W/m² | - |
| 1777905945 | 22.22° C | 44% | 1013.5 hPa | 0 mm | - | 330 W/m² | - |
| 1777905345 | 22.22° C | 42% | 1013.6 hPa | 0 mm | - | 475 W/m² | - |
| 1777904745 | 22.22° C | 44% | 1013.5 hPa | 0 mm | - | 475 W/m² | - |
| 1777904145 | 22.22° C | 42% | 1013.9 hPa | 0 mm | - | 519 W/m² | - |
| 1777903545 | 22.22° C | 44% | 1014 hPa | 0 mm | - | 550 W/m² | - |
| 1777902945 | 21.67° C | 46% | 1014 hPa | 0 mm | - | 580 W/m² | - |
| 1777902345 | 21.67° C | 44% | 1014.1 hPa | 0 mm | - | 283 W/m² | - |
| 1777901745 | 21.67° C | 45% | 1014.1 hPa | 0 mm | - | 299 W/m² | - |
| 1777901144 | 21.11° C | 45% | 1014.2 hPa | 0 mm | - | 729 W/m² | - |
| 1777900544 | 21.11° C | 46% | 1014.4 hPa | 0 mm | - | 459 W/m² | - |
| 1777899944 | 21.11° C | 49% | 1014.4 hPa | 0 mm | - | 329 W/m² | - |
| 1777899344 | 20.56° C | 50% | 1014.5 hPa | 0 mm | - | 313 W/m² | - |
* Rain latest hour (hover to see other rain measurements)
** Current wind speed in m/s (hover to see current wind gust speed)